Time;durP1;ratioP1;P1;durP2;ratioP2;P2;SDS_P1;SDS_P2;PMS_P1;PMS_P2;Temp;Humidity;BMP_temperature;BMP_pressure;BME280_temperature;BME280_humidity;BME280_pressure;Samples;Min_cycle;Max_cycle;Signal;HPM_P1;HPM_P2
2021/05/09 00:01:21;;;;;;;28.52;17.73;;;;;;;;;;5096589;28;20023;-66
2021/05/09 00:03:47;;;;;;;32.60;18.92;;;;;;;;;;5096520;28;20446;-66
2021/05/09 00:06:14;;;;;;;47.33;26.73;;;;;;;;;;5095825;28;20032;-66
2021/05/09 00:08:40;;;;;;;39.88;22.75;;;;;;;;;;5096367;28;20106;-66
2021/05/09 00:11:05;;;;;;;31.00;19.60;;;;;;;;;;5096101;28;20123;-66
2021/05/09 00:13:31;;;;;;;27.92;16.63;;;;;;;;;;5094614;28;20020;-63
2021/05/09 00:15:58;;;;;;;24.02;14.15;;;;;;;;;;5096117;28;20047;-63
2021/05/09 00:18:24;;;;;;;21.33;13.13;;;;;;;;;;5096133;28;20016;-63
2021/05/09 00:20:49;;;;;;;21.33;12.60;;;;;;;;;;5094687;28;20114;-63
2021/05/09 00:23:15;;;;;;;19.85;12.55;;;;;;;;;;5094584;28;20620;-63
2021/05/09 00:25:40;;;;;;;17.90;11.57;;;;;;;;;;5095816;28;20024;-64
2021/05/09 00:28:06;;;;;;;20.05;12.07;;;;;;;;;;5095555;28;20022;-64
2021/05/09 00:30:31;;;;;;;19.90;11.50;;;;;;;;;;5095796;28;20028;-64
2021/05/09 00:32:57;;;;;;;16.88;11.35;;;;;;;;;;5094289;28;20028;-64
2021/05/09 00:35:23;;;;;;;17.65;11.32;;;;;;;;;;5095520;28;20024;-64
2021/05/09 00:37:48;;;;;;;19.15;11.38;;;;;;;;;;5095389;28;20087;-64
2021/05/09 00:40:14;;;;;;;19.15;12.25;;;;;;;;;;5094167;28;20505;-64
2021/05/09 00:42:40;;;;;;;20.08;11.55;;;;;;;;;;5095537;28;20020;-64
2021/05/09 00:45:07;;;;;;;16.13;10.80;;;;;;;;;;5093810;28;20421;-63
2021/05/09 00:47:32;;;;;;;14.68;10.32;;;;;;;;;;5094332;28;20513;-63
2021/05/09 00:49:58;;;;;;;17.08;10.80;;;;;;;;;;5095384;28;20028;-63
2021/05/09 00:52:24;;;;;;;17.48;11.68;;;;;;;;;;5093715;28;20105;-63
2021/05/09 00:54:55;;;;;;;20.13;12.10;;;;;;;;;;5092850;28;20547;-63
2021/05/09 00:57:22;;;;;;;15.60;10.70;;;;;;;;;;5095371;28;20049;-64
2021/05/09 00:59:50;;;;;;;17.17;11.15;;;;;;;;;;5094086;28;20016;-64
2021/05/09 01:02:17;;;;;;;18.55;11.07;;;;;;;;;;5094085;28;20343;-64
2021/05/09 01:04:44;;;;;;;17.48;10.60;;;;;;;;;;5095219;28;20446;-64
2021/05/09 01:07:10;;;;;;;16.58;11.02;;;;;;;;;;5095142;28;20077;-64
2021/05/09 01:09:36;;;;;;;18.55;10.93;;;;;;;;;;5093569;28;20500;-63
2021/05/09 01:12:02;;;;;;;14.55;9.77;;;;;;;;;;5094639;28;20028;-63
2021/05/09 01:14:28;;;;;;;16.88;10.18;;;;;;;;;;5093821;28;20060;-63
2021/05/09 01:16:54;;;;;;;18.02;9.95;;;;;;;;;;5093749;28;20024;-63
2021/05/09 01:19:19;;;;;;;23.15;13.27;;;;;;;;;;5094806;28;20031;-63
2021/05/09 01:21:47;;;;;;;21.55;12.70;;;;;;;;;;5093856;28;20032;-63
2021/05/09 01:24:12;;;;;;;19.10;11.30;;;;;;;;;;5094953;28;20110;-63
2021/05/09 01:26:38;;;;;;;17.30;10.65;;;;;;;;;;5094843;28;20056;-63
2021/05/09 01:29:04;;;;;;;22.33;11.00;;;;;;;;;;5093262;28;20016;-63
2021/05/09 01:31:30;;;;;;;17.95;10.57;;;;;;;;;;5093309;28;20039;-63
2021/05/09 01:33:57;;;;;;;15.93;9.88;;;;;;;;;;5092866;28;20037;-63
2021/05/09 01:36:22;;;;;;;15.75;9.50;;;;;;;;;;5094534;28;20051;-63
2021/05/09 01:38:48;;;;;;;14.32;9.02;;;;;;;;;;5093225;28;20460;-63
2021/05/09 01:41:14;;;;;;;15.63;9.32;;;;;;;;;;5093179;28;20115;-63
2021/05/09 01:43:39;;;;;;;16.67;9.98;;;;;;;;;;5093879;28;20040;-63
2021/05/09 01:46:06;;;;;;;12.10;9.32;;;;;;;;;;5093161;28;20032;-63
2021/05/09 01:48:31;;;;;;;16.65;9.48;;;;;;;;;;5094112;28;20036;-63
2021/05/09 01:50:58;;;;;;;14.80;9.48;;;;;;;;;;5093035;28;20052;-63
2021/05/09 01:53:24;;;;;;;14.95;9.73;;;;;;;;;;5092754;28;20035;-64
2021/05/09 01:55:50;;;;;;;14.50;9.88;;;;;;;;;;5092870;28;20032;-64
2021/05/09 01:58:32;;;;;;;14.05;9.65;;;;;;;;;;5093182;28;20024;-63
2021/05/09 02:01:18;;;;;;;15.93;10.13;;;;;;;;;;5093512;28;20036;-63
2021/05/09 02:03:55;;;;;;;18.45;9.95;;;;;;;;;;5092999;28;20032;-64
2021/05/09 02:06:23;;;;;;;16.85;9.70;;;;;;;;;;5092501;28;20466;-63
2021/05/09 02:08:49;;;;;;;13.85;9.27;;;;;;;;;;5092396;28;20023;-62
2021/05/09 02:11:27;;;;;;;15.68;9.73;;;;;;;;;;5092655;28;20031;-63
2021/05/09 02:13:58;;;;;;;14.75;9.18;;;;;;;;;;5092684;28;20031;-63
2021/05/09 02:16:28;;;;;;;15.18;9.82;;;;;;;;;;5092601;28;20051;-63
2021/05/09 02:18:53;;;;;;;16.67;9.68;;;;;;;;;;5092406;28;20024;-63
2021/05/09 02:21:23;;;;;;;14.30;8.43;;;;;;;;;;5092532;28;20023;-63
2021/05/09 02:23:49;;;;;;;13.45;9.13;;;;;;;;;;5092495;28;20474;-63
2021/05/09 02:26:15;;;;;;;15.45;8.82;;;;;;;;;;5092579;28;20031;-63
2021/05/09 02:28:42;;;;;;;12.32;8.32;;;;;;;;;;5092213;28;20023;-63
2021/05/09 02:31:08;;;;;;;12.40;8.60;;;;;;;;;;5092085;28;20117;-63
2021/05/09 02:33:34;;;;;;;12.77;8.80;;;;;;;;;;5093508;28;20071;-63
2021/05/09 02:36:00;;;;;;;11.45;8.18;;;;;;;;;;5092291;28;20051;-63
2021/05/09 02:38:25;;;;;;;15.10;8.60;;;;;;;;;;5092175;28;20044;-63
2021/05/09 02:40:51;;;;;;;11.80;7.75;;;;;;;;;;5092382;28;20363;-63
2021/05/09 02:43:16;;;;;;;12.88;8.18;;;;;;;;;;5093193;28;20051;-63
2021/05/09 02:45:43;;;;;;;13.65;9.20;;;;;;;;;;5092313;28;20114;-63
2021/05/09 02:48:09;;;;;;;10.35;7.97;;;;;;;;;;5091920;28;20067;-63
2021/05/09 02:50:35;;;;;;;11.40;8.25;;;;;;;;;;5093527;28;20051;-63
2021/05/09 02:53:00;;;;;;;14.80;8.60;;;;;;;;;;5091973;28;20054;-63
2021/05/09 02:55:27;;;;;;;10.98;7.72;;;;;;;;;;5092072;28;20389;-63
2021/05/09 02:57:52;;;;;;;11.43;8.13;;;;;;;;;;5091840;28;20025;-63
2021/05/09 03:00:18;;;;;;;11.32;8.20;;;;;;;;;;5092175;28;20024;-64
2021/05/09 03:02:44;;;;;;;13.35;8.63;;;;;;;;;;5092280;28;20052;-64
2021/05/09 03:05:15;;;;;;;12.75;8.18;;;;;;;;;;5092029;28;20048;-64
2021/05/09 03:07:41;;;;;;;13.20;7.93;;;;;;;;;;5091905;28;20123;-64
2021/05/09 03:10:07;;;;;;;15.63;8.20;;;;;;;;;;5091953;28;20108;-64
2021/05/09 03:12:33;;;;;;;12.52;8.27;;;;;;;;;;5093348;28;20535;-64
2021/05/09 03:15:01;;;;;;;14.05;8.45;;;;;;;;;;5091925;28;20099;-64
2021/05/09 03:17:26;;;;;;;12.68;9.15;;;;;;;;;;5093214;28;20115;-64
2021/05/09 03:19:52;;;;;;;10.68;8.40;;;;;;;;;;5095971;28;20073;-64
2021/05/09 03:22:17;;;;;;;12.63;8.32;;;;;;;;;;5097120;28;20024;-64
2021/05/09 03:24:43;;;;;;;12.65;9.23;;;;;;;;;;5095387;28;20501;-64
2021/05/09 03:27:08;;;;;;;13.25;8.15;;;;;;;;;;5095656;28;20024;-63
2021/05/09 03:29:34;;;;;;;14.27;8.73;;;;;;;;;;5096934;28;20019;-63
2021/05/09 03:31:59;;;;;;;14.60;9.80;;;;;;;;;;5096675;28;20066;-63
2021/05/09 03:34:24;;;;;;;10.68;7.78;;;;;;;;;;5096718;28;20016;-63
2021/05/09 03:36:50;;;;;;;13.88;8.07;;;;;;;;;;5096715;28;20035;-63
2021/05/09 03:39:15;;;;;;;10.50;8.13;;;;;;;;;;5096977;28;20024;-63
2021/05/09 03:41:41;;;;;;;13.27;7.85;;;;;;;;;;5096464;28;20023;-63
2021/05/09 03:44:06;;;;;;;13.23;8.43;;;;;;;;;;5096382;28;20048;-63
2021/05/09 03:46:33;;;;;;;10.82;7.80;;;;;;;;;;5096806;28;20034;-63
2021/05/09 03:48:59;;;;;;;10.63;7.40;;;;;;;;;;5095552;28;20046;-63
2021/05/09 03:51:25;;;;;;;9.73;6.63;;;;;;;;;;5096375;28;20069;-63
2021/05/09 03:53:50;;;;;;;10.23;6.68;;;;;;;;;;5095134;28;20392;-63
2021/05/09 03:56:16;;;;;;;10.45;6.85;;;;;;;;;;5096355;28;20444;-63
2021/05/09 03:58:41;;;;;;;13.40;7.45;;;;;;;;;;5096081;28;20070;-62
2021/05/09 04:01:07;;;;;;;9.95;6.50;;;;;;;;;;5095283;28;20024;-63
2021/05/09 04:03:32;;;;;;;11.40;6.38;;;;;;;;;;5096269;28;20024;-63
2021/05/09 04:05:58;;;;;;;10.40;5.88;;;;;;;;;;5096282;28;20035;-63
2021/05/09 04:08:25;;;;;;;10.02;6.22;;;;;;;;;;5096088;28;20020;-63
2021/05/09 04:10:51;;;;;;;9.30;6.57;;;;;;;;;;5096155;28;20030;-62
2021/05/09 04:13:17;;;;;;;9.45;6.15;;;;;;;;;;5094573;28;20027;-63
2021/05/09 04:15:42;;;;;;;8.10;5.95;;;;;;;;;;5094847;28;20028;-63
2021/05/09 04:18:08;;;;;;;6.80;5.60;;;;;;;;;;5094762;28;20012;-63
2021/05/09 04:20:35;;;;;;;6.78;5.68;;;;;;;;;;5096079;28;20024;-63
2021/05/09 04:23:20;;;;;;;8.32;5.75;;;;;;;;;;5094557;28;20469;-63
2021/05/09 04:25:47;;;;;;;8.18;6.10;;;;;;;;;;5095605;28;20493;-63
2021/05/09 04:28:13;;;;;;;7.88;5.55;;;;;;;;;;5094889;28;20046;-63
2021/05/09 04:30:38;;;;;;;7.70;5.30;;;;;;;;;;5095528;28;20032;-62
2021/05/09 04:33:06;;;;;;;9.65;5.50;;;;;;;;;;5095703;28;20058;-62
2021/05/09 04:35:33;;;;;;;9.07;6.00;;;;;;;;;;5095578;28;20442;-64
2021/05/09 04:37:59;;;;;;;7.82;5.32;;;;;;;;;;5095003;28;20051;-64
2021/05/09 04:40:25;;;;;;;6.80;4.75;;;;;;;;;;5095537;28;20029;-62
2021/05/09 04:42:50;;;;;;;6.28;4.97;;;;;;;;;;5095573;28;20016;-63
2021/05/09 04:45:16;;;;;;;6.47;5.18;;;;;;;;;;5095199;28;20581;-61
2021/05/09 04:47:42;;;;;;;7.50;5.13;;;;;;;;;;5095578;28;20506;-63
2021/05/09 04:50:08;;;;;;;7.05;5.53;;;;;;;;;;5094304;28;20106;-63
2021/05/09 04:52:34;;;;;;;7.80;4.90;;;;;;;;;;5095245;28;20412;-63
2021/05/09 04:54:59;;;;;;;5.80;4.60;;;;;;;;;;5095430;28;20472;-63
2021/05/09 04:57:25;;;;;;;7.32;5.05;;;;;;;;;;5094172;28;20016;-62
2021/05/09 04:59:50;;;;;;;6.45;5.05;;;;;;;;;;5095091;28;20016;-63
2021/05/09 05:02:16;;;;;;;7.28;4.80;;;;;;;;;;5093872;28;20023;-63
2021/05/09 05:04:42;;;;;;;7.00;5.22;;;;;;;;;;5093854;28;20032;-62
2021/05/09 05:07:08;;;;;;;6.55;5.40;;;;;;;;;;5095259;28;20024;-63
2021/05/09 05:09:33;;;;;;;7.18;5.40;;;;;;;;;;5095321;28;20024;-63
2021/05/09 05:11:59;;;;;;;5.95;5.15;;;;;;;;;;5095141;28;20020;-63
2021/05/09 05:14:24;;;;;;;6.72;4.90;;;;;;;;;;5093581;28;20082;-63
2021/05/09 05:16:50;;;;;;;4.97;4.32;;;;;;;;;;5095184;28;20527;-64
2021/05/09 05:19:15;;;;;;;5.60;4.65;;;;;;;;;;5094913;28;20525;-63
2021/05/09 05:21:41;;;;;;;5.18;4.25;;;;;;;;;;5094591;28;20008;-63
2021/05/09 05:24:08;;;;;;;5.40;3.95;;;;;;;;;;5094653;28;20031;-63
2021/05/09 05:26:34;;;;;;;6.45;5.18;;;;;;;;;;5094797;28;20024;-63
2021/05/09 05:28:59;;;;;;;6.43;4.72;;;;;;;;;;5094517;28;20058;-66
2021/05/09 05:31:25;;;;;;;7.53;5.38;;;;;;;;;;5094578;28;20012;-66
2021/05/09 05:33:50;;;;;;;5.72;4.70;;;;;;;;;;5094528;28;20374;-66
2021/05/09 05:36:16;;;;;;;8.98;7.40;;;;;;;;;;5094556;28;20027;-66
2021/05/09 05:38:41;;;;;;;13.82;11.38;;;;;;;;;;5092959;28;20035;-67
2021/05/09 05:41:07;;;;;;;17.63;14.65;;;;;;;;;;5093681;28;20069;-68
2021/05/09 05:43:33;;;;;;;13.30;11.02;;;;;;;;;;5093600;28;20043;-68
2021/05/09 05:45:59;;;;;;;7.38;5.82;;;;;;;;;;5094474;28;20371;-66
2021/05/09 05:48:25;;;;;;;3.72;3.40;;;;;;;;;;5094250;28;20378;-66
2021/05/09 05:50:51;;;;;;;5.70;4.13;;;;;;;;;;5094356;28;20038;-67
2021/05/09 05:53:17;;;;;;;6.15;4.20;;;;;;;;;;5093972;28;20032;-66
2021/05/09 05:55:43;;;;;;;6.45;4.28;;;;;;;;;;5094054;28;20039;-67
2021/05/09 05:58:09;;;;;;;5.22;3.88;;;;;;;;;;5094091;28;20024;-67
2021/05/09 06:00:34;;;;;;;4.28;3.75;;;;;;;;;;5094329;28;20020;-66
2021/05/09 06:03:00;;;;;;;3.47;2.67;;;;;;;;;;5075920;28;20462;-66
2021/05/09 06:05:25;;;;;;;3.80;2.88;;;;;;;;;;5094099;28;20034;-66
2021/05/09 06:07:51;;;;;;;3.92;3.28;;;;;;;;;;5094068;28;20016;-66
2021/05/09 06:10:16;;;;;;;2.67;2.30;;;;;;;;;;5093956;28;20431;-65
2021/05/09 06:12:42;;;;;;;3.38;2.40;;;;;;;;;;5093716;28;20535;-66
2021/05/09 06:15:07;;;;;;;2.50;2.30;;;;;;;;;;5093974;28;20024;-66
2021/05/09 06:17:33;;;;;;;3.20;1.80;;;;;;;;;;5093917;28;20016;-67
2021/05/09 06:19:58;;;;;;;2.63;2.42;;;;;;;;;;5092442;28;20032;-67
2021/05/09 06:22:24;;;;;;;2.05;1.92;;;;;;;;;;5092755;28;20016;-67
2021/05/09 06:24:49;;;;;;;2.13;1.90;;;;;;;;;;5093468;28;20043;-67
2021/05/09 06:27:15;;;;;;;2.85;2.10;;;;;;;;;;5075790;28;20019;-67
2021/05/09 06:29:41;;;;;;;2.47;2.15;;;;;;;;;;5092572;28;20493;-68
2021/05/09 06:32:07;;;;;;;2.13;2.00;;;;;;;;;;5093766;28;20019;-66
2021/05/09 06:34:32;;;;;;;2.28;2.08;;;;;;;;;;5093518;28;20377;-66
2021/05/09 06:36:58;;;;;;;3.15;1.90;;;;;;;;;;5092339;28;20505;-66
2021/05/09 06:39:28;;;;;;;2.45;2.08;;;;;;;;;;5093440;28;20367;-65
2021/05/09 06:41:58;;;;;;;2.53;1.88;;;;;;;;;;5093604;28;20047;-65
2021/05/09 06:44:28;;;;;;;1.92;1.80;;;;;;;;;;5093028;28;20075;-65
2021/05/09 06:46:53;;;;;;;1.73;1.63;;;;;;;;;;5092402;28;20028;-65
2021/05/09 06:49:18;;;;;;;1.60;1.48;;;;;;;;;;5093567;28;20539;-66
2021/05/09 06:51:44;;;;;;;2.53;2.08;;;;;;;;;;5093748;28;20020;-66
2021/05/09 06:54:10;;;;;;;2.25;1.63;;;;;;;;;;5097552;28;20035;-68
2021/05/09 06:56:36;;;;;;;1.90;1.80;;;;;;;;;;5097566;28;20020;-67
2021/05/09 06:59:03;;;;;;;1.77;1.67;;;;;;;;;;5096327;28;20020;-67
2021/05/09 07:01:28;;;;;;;2.45;1.88;;;;;;;;;;5096052;28;20023;-66
2021/05/09 07:03:54;;;;;;;2.20;1.70;;;;;;;;;;5096834;28;20028;-66
2021/05/09 07:06:20;;;;;;;1.85;1.73;;;;;;;;;;5088184;28;20030;-66
2021/05/09 07:08:45;;;;;;;1.50;1.40;;;;;;;;;;5093663;28;20117;-66
2021/05/09 07:11:11;;;;;;;1.80;1.70;;;;;;;;;;5092932;28;20031;-66
2021/05/09 07:13:36;;;;;;;1.67;1.58;;;;;;;;;;5093104;28;20031;-66
2021/05/09 07:16:02;;;;;;;3.28;2.22;;;;;;;;;;5092139;28;20024;-66
2021/05/09 07:18:30;;;;;;;3.08;2.38;;;;;;;;;;5093079;28;20031;-66
2021/05/09 07:20:57;;;;;;;2.30;2.10;;;;;;;;;;5092680;28;20540;-67
2021/05/09 07:23:22;;;;;;;3.85;3.47;;;;;;;;;;5093047;28;20119;-66
2021/05/09 07:25:49;;;;;;;3.20;2.90;;;;;;;;;;5092795;28;20192;-66
2021/05/09 07:28:15;;;;;;;4.22;3.92;;;;;;;;;;5092655;28;20039;-66
2021/05/09 07:30:43;;;;;;;1.98;1.83;;;;;;;;;;5092274;28;20024;-67
2021/05/09 07:33:12;;;;;;;29.50;2.63;;;;;;;;;;5092291;28;20055;-63
2021/05/09 07:35:37;;;;;;;4.45;1.70;;;;;;;;;;5092460;28;20099;-66
2021/05/09 07:38:03;;;;;;;2.10;1.88;;;;;;;;;;5090940;28;20169;-67
2021/05/09 07:40:29;;;;;;;1.40;1.30;;;;;;;;;;5092606;28;20101;-66
2021/05/09 07:42:55;;;;;;;2.78;1.60;;;;;;;;;;5091438;28;20047;-66
2021/05/09 07:45:22;;;;;;;1.40;1.05;;;;;;;;;;5092378;28;20044;-66
2021/05/09 07:47:48;;;;;;;2.72;2.17;;;;;;;;;;5092309;28;20047;-66
2021/05/09 07:50:14;;;;;;;1.67;1.55;;;;;;;;;;5090515;28;20036;-66
2021/05/09 07:52:42;;;;;;;1.95;1.48;;;;;;;;;;5090805;28;20042;-66
2021/05/09 07:55:08;;;;;;;0.90;0.85;;;;;;;;;;5092325;28;20028;-66
2021/05/09 07:57:34;;;;;;;3.30;1.63;;;;;;;;;;5092418;28;20028;-66
2021/05/09 07:59:59;;;;;;;1.25;1.15;;;;;;;;;;5092276;28;20020;-66
2021/05/09 08:02:24;;;;;;;2.22;1.50;;;;;;;;;;5090440;28;20040;-63
2021/05/09 08:04:50;;;;;;;3.50;1.85;;;;;;;;;;5091941;28;20498;-63
2021/05/09 08:07:15;;;;;;;1.60;1.50;;;;;;;;;;5090997;28;20032;-64
2021/05/09 08:09:41;;;;;;;2.22;2.10;;;;;;;;;;5091250;28;20012;-63
2021/05/09 08:12:06;;;;;;;1.95;1.55;;;;;;;;;;5092323;28;20031;-64
2021/05/09 08:14:32;;;;;;;1.77;1.65;;;;;;;;;;5090124;28;20035;-67
2021/05/09 08:16:58;;;;;;;2.05;1.42;;;;;;;;;;5092023;28;20175;-63
2021/05/09 08:19:23;;;;;;;1.80;1.20;;;;;;;;;;5092028;28;20382;-63
2021/05/09 08:21:50;;;;;;;3.75;1.67;;;;;;;;;;5091907;28;20069;-63
2021/05/09 08:24:16;;;;;;;2.33;1.98;;;;;;;;;;5091027;28;20031;-69
2021/05/09 08:26:41;;;;;;;1.65;1.52;;;;;;;;;;5092165;28;20418;-66
2021/05/09 08:29:07;;;;;;;1.40;1.27;;;;;;;;;;5095657;28;20023;-65
2021/05/09 08:31:33;;;;;;;1.38;1.27;;;;;;;;;;5095761;28;20032;-64
2021/05/09 08:33:59;;;;;;;1.73;1.63;;;;;;;;;;5095652;28;20016;-65
2021/05/09 08:36:24;;;;;;;1.48;1.38;;;;;;;;;;5094664;28;20077;-64
2021/05/09 08:38:50;;;;;;;2.00;1.80;;;;;;;;;;5095762;28;20020;-64
2021/05/09 08:41:16;;;;;;;1.63;1.38;;;;;;;;;;5095636;28;20056;-64
2021/05/09 08:43:42;;;;;;;1.70;1.27;;;;;;;;;;5094895;28;20055;-64
2021/05/09 08:46:07;;;;;;;1.77;1.02;;;;;;;;;;5095712;28;20043;-64
2021/05/09 08:48:36;;;;;;;1.35;1.25;;;;;;;;;;5094138;28;20066;-65
2021/05/09 08:51:02;;;;;;;2.05;1.83;;;;;;;;;;5094805;28;20028;-65
2021/05/09 08:53:28;;;;;;;2.95;1.45;;;;;;;;;;5094255;28;20016;-64
2021/05/09 08:55:53;;;;;;;2.40;1.50;;;;;;;;;;5093032;28;20393;-64
2021/05/09 08:58:19;;;;;;;2.45;1.42;;;;;;;;;;5094476;28;20453;-64
2021/05/09 09:00:44;;;;;;;1.33;1.23;;;;;;;;;;5094245;28;20024;-64
2021/05/09 09:03:11;;;;;;;1.15;1.05;;;;;;;;;;5094163;28;20023;-65
2021/05/09 09:05:41;;;;;;;1.60;1.50;;;;;;;;;;5093918;28;20389;-64
2021/05/09 09:08:07;;;;;;;1.10;1.00;;;;;;;;;;5094300;28;20020;-64
2021/05/09 09:10:33;;;;;;;1.23;1.13;;;;;;;;;;5093318;28;20034;-64
2021/05/09 09:13:00;;;;;;;0.93;0.90;;;;;;;;;;5094540;28;20024;-64
2021/05/09 09:15:45;;;;;;;1.52;1.42;;;;;;;;;;5092663;28;20085;-64
2021/05/09 09:18:30;;;;;;;2.65;1.42;;;;;;;;;;5093418;28;20093;-64
2021/05/09 09:20:56;;;;;;;1.10;1.10;;;;;;;;;;5094446;28;20488;-64
2021/05/09 09:23:21;;;;;;;1.90;0.73;;;;;;;;;;5094361;28;20016;-64
2021/05/09 09:25:47;;;;;;;1.50;1.40;;;;;;;;;;5094353;28;20032;-64
2021/05/09 09:28:12;;;;;;;1.25;1.15;;;;;;;;;;5094291;28;20016;-64
2021/05/09 09:30:53;;;;;;;2.13;1.35;;;;;;;;;;5094341;28;20381;-64
2021/05/09 09:33:18;;;;;;;;;;;;;;;;;;5093565;28;20028;-64
2021/05/09 09:35:45;;;;;;;1.15;1.10;;;;;;;;;;5094280;28;19998;-64
2021/05/09 09:38:21;;;;;;;1.55;1.33;;;;;;;;;;5092986;28;20036;-64
2021/05/09 09:41:05;;;;;;;1.70;1.50;;;;;;;;;;5094126;28;20024;-64
2021/05/09 09:43:31;;;;;;;1.92;1.05;;;;;;;;;;5093626;28;21138;-64
2021/05/09 09:45:56;;;;;;;1.80;1.30;;;;;;;;;;5094162;28;20537;-64
2021/05/09 09:48:35;;;;;;;2.65;1.17;;;;;;;;;;5092718;28;20481;-64
2021/05/09 09:51:00;;;;;;;1.30;1.20;;;;;;;;;;5092634;28;20032;-64
2021/05/09 09:53:25;;;;;;;1.25;1.20;;;;;;;;;;5092524;28;20028;-64
2021/05/09 09:56:08;;;;;;;1.45;1.30;;;;;;;;;;5092541;28;20478;-63
2021/05/09 09:58:49;;;;;;;1.50;1.40;;;;;;;;;;5093679;28;20085;-64
2021/05/09 10:01:20;;;;;;;1.30;1.20;;;;;;;;;;5094081;28;20115;-64
2021/05/09 10:03:47;;;;;;;2.30;1.25;;;;;;;;;;5093770;28;20466;-64
2021/05/09 10:06:12;;;;;;;2.00;1.10;;;;;;;;;;5093844;28;20474;-64
2021/05/09 10:08:38;;;;;;;0.75;0.50;;;;;;;;;;5093638;28;20035;-63
2021/05/09 10:11:05;;;;;;;1.60;1.02;;;;;;;;;;5093676;28;20386;-63
2021/05/09 10:13:31;;;;;;;1.08;1.08;;;;;;;;;;5092219;28;20464;-64
2021/05/09 10:15:57;;;;;;;1.20;1.10;;;;;;;;;;5093505;28;20016;-64
2021/05/09 10:18:23;;;;;;;1.52;1.00;;;;;;;;;;5093469;28;20024;-64
2021/05/09 10:20:48;;;;;;;1.08;0.95;;;;;;;;;;5092187;28;20074;-63
2021/05/09 10:23:15;;;;;;;1.05;1.02;;;;;;;;;;5093365;28;20386;-64
2021/05/09 10:26:01;;;;;;;1.23;1.23;;;;;;;;;;5092207;28;20035;-63
2021/05/09 10:28:39;;;;;;;1.00;1.00;;;;;;;;;;5092802;28;20130;-63
2021/05/09 10:31:06;;;;;;;0.80;0.80;;;;;;;;;;5092062;28;20484;-63
2021/05/09 10:33:37;;;;;;;0.98;0.98;;;;;;;;;;5091929;28;20569;-63
2021/05/09 10:36:04;;;;;;;1.55;1.20;;;;;;;;;;5093043;28;20028;-64
2021/05/09 10:38:29;;;;;;;0.85;0.85;;;;;;;;;;5093527;28;20020;-63
2021/05/09 10:41:14;;;;;;;0.73;0.73;;;;;;;;;;5092132;28;20035;-64
2021/05/09 10:43:40;;;;;;;1.77;0.80;;;;;;;;;;5092961;28;20044;-64
2021/05/09 10:46:07;;;;;;;1.27;1.02;;;;;;;;;;5093678;28;20028;-64
2021/05/09 10:48:34;;;;;;;1.40;1.30;;;;;;;;;;5093678;28;20028;-64
2021/05/09 10:51:02;;;;;;;1.50;1.40;;;;;;;;;;5093513;28;20079;-65
2021/05/09 10:53:34;;;;;;;0.82;0.82;;;;;;;;;;5093063;28;20519;-65
2021/05/09 10:56:03;;;;;;;1.08;1.05;;;;;;;;;;5091790;28;20020;-65
2021/05/09 10:58:47;;;;;;;0.75;0.75;;;;;;;;;;5093191;28;20493;-65
2021/05/09 11:01:14;;;;;;;1.52;1.40;;;;;;;;;;5093293;28;20020;-69
2021/05/09 11:03:40;;;;;;;1.38;1.27;;;;;;;;;;5093371;28;20111;-69
2021/05/09 11:06:12;;;;;;;1.00;0.90;;;;;;;;;;5093379;28;20043;-69
2021/05/09 11:08:58;;;;;;;1.02;0.88;;;;;;;;;;5093161;28;20434;-69
2021/05/09 11:11:30;;;;;;;1.05;0.95;;;;;;;;;;5071877;28;20459;-69
2021/05/09 11:16:25;;;;;;;0.90;0.90;;;;;;;;;;5092973;28;20095;-69
2021/05/09 11:18:57;;;;;;;0.80;0.80;;;;;;;;;;5093117;28;20146;-69
2021/05/09 11:21:23;;;;;;;1.00;1.00;;;;;;;;;;5093187;28;20020;-69
2021/05/09 11:23:49;;;;;;;2.30;1.00;;;;;;;;;;5093065;28;20028;-69
2021/05/09 11:26:21;;;;;;;0.82;0.82;;;;;;;;;;5093383;28;20032;-69
2021/05/09 11:29:03;;;;;;;0.95;0.80;;;;;;;;;;5085056;28;20058;-69
2021/05/09 11:31:29;;;;;;;0.88;0.88;;;;;;;;;;5089637;28;20032;-69
2021/05/09 11:33:54;;;;;;;1.08;0.95;;;;;;;;;;5089396;28;20024;-69
2021/05/09 11:36:24;;;;;;;1.27;0.90;;;;;;;;;;5089461;28;20559;-69
2021/05/09 11:38:52;;;;;;;2.17;0.85;;;;;;;;;;5089699;28;20044;-69
2021/05/09 11:41:18;;;;;;;0.70;0.70;;;;;;;;;;5092865;28;20043;-69
2021/05/09 11:44:04;;;;;;;0.70;0.70;;;;;;;;;;5092772;28;20056;-69
2021/05/09 11:46:34;;;;;;;0.88;0.88;;;;;;;;;;5095866;28;20063;-67
2021/05/09 11:49:19;;;;;;;0.63;0.63;;;;;;;;;;5096664;28;20040;-67
2021/05/09 11:51:48;;;;;;;0.73;0.73;;;;;;;;;;5096442;28;20024;-64
2021/05/09 11:54:14;;;;;;;0.77;0.73;;;;;;;;;;5096478;28;20042;-64
2021/05/09 11:56:49;;;;;;;0.77;0.75;;;;;;;;;;5096573;28;20099;-64
2021/05/09 11:59:29;;;;;;;0.70;0.70;;;;;;;;;;5096519;28;20020;-64
2021/05/09 12:01:55;;;;;;;;;;;;;;;;;;5096787;28;20520;-64
2021/05/09 12:04:20;;;;;;;0.70;0.70;;;;;;;;;;5092673;28;19904;-64
2021/05/09 12:06:46;;;;;;;0.68;0.68;;;;;;;;;;5096297;28;20119;-64
2021/05/09 12:09:12;;;;;;;1.02;0.68;;;;;;;;;;5096169;28;20031;-64
2021/05/09 12:11:38;;;;;;;0.55;0.55;;;;;;;;;;5096194;28;20077;-63
2021/05/09 12:14:05;;;;;;;0.68;0.68;;;;;;;;;;5094837;28;20020;-64
2021/05/09 12:16:46;;;;;;;0.88;0.77;;;;;;;;;;5096176;28;20028;-64
2021/05/09 12:19:12;;;;;;;0.75;0.75;;;;;;;;;;5096145;28;20400;-64
2021/05/09 12:21:38;;;;;;;0.90;0.90;;;;;;;;;;5096256;28;20020;-64
2021/05/09 12:24:05;;;;;;;2.33;0.70;;;;;;;;;;5096215;28;20051;-64
2021/05/09 12:26:30;;;;;;;0.68;0.68;;;;;;;;;;5094809;28;20021;-64
2021/05/09 12:29:15;;;;;;;0.60;0.60;;;;;;;;;;5095443;28;20040;-64
2021/05/09 12:31:40;;;;;;;0.70;0.60;;;;;;;;;;5095444;28;20031;-64
2021/05/09 12:34:06;;;;;;;0.95;0.80;;;;;;;;;;5095591;28;20365;-64
2021/05/09 12:36:31;;;;;;;0.90;0.57;;;;;;;;;;5094304;28;20024;-64
2021/05/09 12:38:57;;;;;;;0.40;0.40;;;;;;;;;;5095361;28;20017;-64
2021/05/09 12:41:23;;;;;;;0.60;0.60;;;;;;;;;;5094256;28;20032;-69
2021/05/09 12:43:49;;;;;;;0.65;0.65;;;;;;;;;;5094721;28;20050;-69
2021/05/09 12:46:33;;;;;;;1.30;0.60;;;;;;;;;;5095848;28;20044;-69
2021/05/09 12:49:18;;;;;;;1.08;0.70;;;;;;;;;;5095414;28;20025;-69
2021/05/09 12:51:50;;;;;;;0.63;0.60;;;;;;;;;;5095001;28;20032;-69
2021/05/09 12:54:34;;;;;;;0.82;0.82;;;;;;;;;;5095125;28;20035;-69
2021/05/09 12:57:12;;;;;;;0.60;0.60;;;;;;;;;;5095272;28;20050;-69
2021/05/09 12:59:55;;;;;;;1.67;0.75;;;;;;;;;;5093964;28;20020;-69
2021/05/09 13:02:22;;;;;;;0.70;0.70;;;;;;;;;;5095126;28;20024;-69
2021/05/09 13:04:50;;;;;;;0.57;0.50;;;;;;;;;;5095327;28;20017;-69
2021/05/09 13:07:17;;;;;;;0.82;0.82;;;;;;;;;;5095205;28;20051;-69
2021/05/09 13:09:43;;;;;;;0.70;0.70;;;;;;;;;;5095102;28;20422;-68
2021/05/09 13:12:09;;;;;;;0.80;0.80;;;;;;;;;;5095404;28;20488;-68
2021/05/09 13:14:38;;;;;;;0.60;0.57;;;;;;;;;;5093973;28;20027;-68
2021/05/09 13:17:04;;;;;;;0.60;0.60;;;;;;;;;;5093901;28;20028;-68
2021/05/09 13:19:29;;;;;;;0.55;0.55;;;;;;;;;;5093528;28;20027;-69
2021/05/09 13:21:56;;;;;;;0.50;0.50;;;;;;;;;;5094643;28;20020;-69
2021/05/09 13:24:21;;;;;;;0.93;0.75;;;;;;;;;;5093608;28;20012;-69
2021/05/09 13:26:47;;;;;;;0.50;0.50;;;;;;;;;;5093309;28;20088;-68
2021/05/09 13:29:12;;;;;;;0.98;0.90;;;;;;;;;;5093146;28;20031;-69
2021/05/09 13:31:38;;;;;;;0.95;0.60;;;;;;;;;;5093182;28;20028;-69
2021/05/09 13:34:03;;;;;;;0.70;0.70;;;;;;;;;;5094538;28;20016;-69
2021/05/09 13:36:29;;;;;;;0.60;0.60;;;;;;;;;;5094543;28;20030;-68
2021/05/09 13:38:54;;;;;;;0.70;0.70;;;;;;;;;;5094416;28;20031;-69
2021/05/09 13:41:20;;;;;;;1.42;0.80;;;;;;;;;;5092967;28;20394;-69
2021/05/09 13:43:45;;;;;;;0.90;0.77;;;;;;;;;;5093627;28;20083;-69
2021/05/09 13:46:16;;;;;;;0.88;0.85;;;;;;;;;;5094396;28;20492;-69
2021/05/09 13:48:41;;;;;;;0.73;0.70;;;;;;;;;;5092769;28;20131;-69
2021/05/09 13:51:07;;;;;;;0.80;0.80;;;;;;;;;;5094003;28;20058;-69
2021/05/09 13:53:32;;;;;;;0.52;0.50;;;;;;;;;;5092698;28;20032;-69
2021/05/09 13:55:57;;;;;;;1.10;1.00;;;;;;;;;;5093920;28;20034;-69
2021/05/09 13:58:23;;;;;;;1.00;0.80;;;;;;;;;;5093903;28;20125;-69
2021/05/09 14:00:48;;;;;;;1.13;0.70;;;;;;;;;;5093816;28;20075;-69
2021/05/09 14:03:14;;;;;;;0.70;0.70;;;;;;;;;;5093315;28;20442;-69
2021/05/09 14:05:40;;;;;;;1.45;1.13;;;;;;;;;;5093751;28;20020;-69
2021/05/09 14:08:05;;;;;;;1.42;0.90;;;;;;;;;;5093739;28;20363;-69
2021/05/09 14:10:31;;;;;;;1.17;1.00;;;;;;;;;;5093581;28;20031;-69
2021/05/09 14:12:57;;;;;;;0.70;0.70;;;;;;;;;;5093441;28;20427;-69
2021/05/09 14:15:23;;;;;;;12.77;1.35;;;;;;;;;;5093509;28;20012;-69
2021/05/09 14:17:49;;;;;;;0.75;0.75;;;;;;;;;;5093645;28;20485;-69
2021/05/09 14:20:14;;;;;;;0.60;0.60;;;;;;;;;;5092436;28;20024;-69
2021/05/09 14:22:40;;;;;;;0.60;0.60;;;;;;;;;;5093465;28;20020;-69
2021/05/09 14:25:06;;;;;;;0.80;0.75;;;;;;;;;;5093529;28;20026;-69
2021/05/09 14:27:33;;;;;;;0.60;0.60;;;;;;;;;;5093418;28;20116;-69
2021/05/09 14:29:58;;;;;;;1.48;0.80;;;;;;;;;;5093287;28;20013;-69
2021/05/09 14:32:24;;;;;;;0.60;0.60;;;;;;;;;;5093322;28;20081;-69
2021/05/09 14:34:49;;;;;;;0.65;0.65;;;;;;;;;;5093168;28;20030;-69
2021/05/09 14:37:14;;;;;;;0.55;0.55;;;;;;;;;;5093236;28;20028;-69
2021/05/09 14:39:41;;;;;;;1.58;0.60;;;;;;;;;;5093571;28;20015;-69
2021/05/09 14:42:06;;;;;;;1.02;0.80;;;;;;;;;;5091940;28;20431;-69